Hovedside
METAR-TAF:

METAR-TAF

Lufthavner :

Labuan, Malaysia

breddegrad: 05-18N, lengdegrad: 115-15E, høyde over havet: 30 m

Gjeldene værobservasjon

Denne rapporten ble laget for 42 minutter siden, klokken 00:00 UTC
Flau vind
Temperatur 27°C
Luftfuktighet 89%
Trykk 1008 hPa
Sikt 10 km eller mer
Få skyer i en høyde av 1400 ft

METAR: WBKL 210000Z 00000KT 9999 FEW014 27/25 Q1008

Tid: 08:42 (00:42 UTC)

Varsel

Denne rapporten ble laget for 1 time og 42 minutter siden, klokken 23:00 UTC
Varsel gyldig fra 21. klokken 00 UTC til 22. klokken 00 UTC
Vind 3 kt fra skiftende retning
Sikt 10 km eller mer
Få skyer i en høyde av 1400 ft
Midlertidig
fra 21. klokken 09 UTC til 21. klokken 13 UTC
Sikt: 5000 m
Få skyer i en høyde av 1000 ft
Få skyer i en høyde av 1600 ft, Bygeskyer.
Spredte skyer i en høyde av 3000 ft
torden, regn,

TAF: WBKL 202300Z 2100/2200 VRB03KT 9999 FEW014 TEMPO 2109/2113 5000 TSRA FEW010 FEW016CB SCT030

Værobservasjoner og værvarsel for over 4000 flyplasser (METAR- og TAF-rapporter).

Tilgjengelige stasjoner er representert av de røde og gule prikkene på kartet.

Hold musepekeren over prikken for å se navnet på stasjonen.

Klikk så for å se værobservasjoner og -varsler.

For å forandre kartet kan du klikke på den grønne knappen med svart kryss for å zoome inn, på den grønne knappen med strek for å zoome ut, eller på de grønne pilene for å se tilstøtende kart.


METAR-TAF: